< < Back
Terminal Aerodrome Forecast


Current Version              Previous Versions:   1  2  3  4  5  6  7  8  9  

Terminal Aerodrome Forecast

882
FTUS42 KILM 221500 AAD
TAFFLO
TAF AMD
KFLO 221531Z 2216/2312 06006KT P6SM VCSH OVC004
     FM221800 13007KT P6SM -SHRA BKN040 BKN150
     FM230200 VRB03KT P6SM VCSH SCT025 BKN150
     FM230600 VRB02KT 2SM BR SCT002 BKN150=



Latest METAR

874
SAUS70 KWBC 221700 RRE
MTRFLO
METAR KFLO 221653Z VRB05KT 10SM BKN017 BKN033 28/23 A3013 RMK AO2 SLP198
T02780228


USA.gov is the U.S. government's official web portal to all federal, state and local government web resources and services.